Corinth, Maine
Current Conditions -  °F | °C
As of 4:53 AM on Friday 24 Oct 2014 (Local Time) from KBGR Reporting Station
Overcast Overcast  
Wind Chill: 40°   Ceiling: 700
Heat Index: 46°   Visibility: 10mi
Dew Point: 44°   Wind: 15mph
Humidity: 93%   Direction: 360°N
Pressure: 29.68"   Gusts: NA
Location:  45°N, 69.02°W
Report Text: KBGR 240853Z 36013KT 10SM OVC007 08/07 A2968 RMK AO2 RAE20 SLP052 P0000 60006 T00780067 50001
Loading
Personal Weather Stations






























Interactive Weather Map
Tropical Storm Tracking
New forecast layout! Learn more

10-Day Weather Forecast

Advertisements
Track Severe Weather on mobile